createdAt,value
2019-04-20T00:01:40.780Z,13.47
2019-04-20T00:04:17.048Z,13.50
2019-04-20T00:06:46.724Z,13.17
2019-04-20T00:09:20.580Z,13.10
2019-04-20T00:11:53.530Z,13.90
2019-04-20T00:14:19.701Z,12.80
2019-04-20T00:16:48.255Z,13.33
2019-04-20T00:19:26.113Z,14.07
2019-04-20T00:21:58.573Z,13.73
2019-04-20T00:24:31.030Z,13.63
2019-04-20T00:27:22.432Z,14.27
2019-04-20T00:29:45.977Z,13.23
2019-04-20T00:32:12.545Z,13.67
2019-04-20T00:34:37.239Z,13.80
2019-04-20T00:37:05.190Z,13.83
2019-04-20T00:39:36.013Z,14.90
2019-04-20T00:42:10.532Z,14.30
2019-04-20T00:44:39.557Z,14.63
2019-04-20T00:47:19.998Z,15.03
2019-04-20T00:49:52.732Z,13.60
2019-04-20T00:52:27.656Z,14.37
2019-04-20T00:54:43.176Z,15.20
2019-04-20T00:57:23.467Z,15.77
2019-04-20T01:00:04.930Z,15.27
2019-04-20T01:02:29.944Z,16.47
2019-04-20T01:05:04.401Z,16.93
2019-04-20T01:07:32.065Z,17.37
2019-04-20T01:10:06.882Z,17.20
2019-04-20T01:12:39.212Z,16.23
2019-04-20T01:15:16.877Z,15.73
2019-04-20T01:17:42.934Z,15.93
2019-04-20T01:20:13.346Z,16.47
2019-04-20T01:22:51.460Z,16.53
2019-04-20T01:25:22.108Z,16.33
2019-04-20T01:28:05.452Z,16.60
2019-04-20T01:30:25.276Z,15.90
2019-04-20T01:33:03.921Z,17.60
2019-04-20T01:35:40.831Z,16.80
2019-04-20T01:38:12.565Z,17.70
2019-04-20T01:40:25.364Z,16.07
2019-04-20T01:42:55.434Z,16.90
2019-04-20T01:45:29.303Z,16.70
2019-04-20T01:47:59.567Z,16.83
2019-04-20T01:50:33.282Z,17.20
2019-04-20T01:53:10.122Z,17.17
2019-04-20T01:55:50.734Z,16.50
2019-04-20T01:58:23.728Z,17.63
2019-04-20T02:00:44.964Z,16.77
2019-04-20T02:03:38.377Z,16.43
2019-04-20T02:08:42.166Z,16.23
2019-04-20T02:11:18.634Z,17.30
2019-04-20T02:13:50.983Z,17.37
2019-04-20T02:16:22.606Z,18.03
2019-04-20T02:19:24.236Z,16.70
2019-04-20T02:21:54.215Z,17.23
2019-04-20T02:24:10.918Z,17.10
2019-04-20T02:26:40.966Z,17.50
2019-04-20T02:29:35.120Z,18.10
2019-04-20T02:40:09.346Z,19.03
2019-04-20T02:45:17.330Z,17.80
2019-04-20T02:50:15.159Z,18.43
2019-04-20T02:52:49.210Z,18.77
2019-04-20T02:55:14.851Z,19.20
2019-04-20T02:57:55.322Z,18.53
2019-04-20T03:00:13.768Z,18.23
2019-04-20T03:02:32.240Z,19.70
2019-04-20T03:05:02.447Z,18.00
2019-04-20T03:07:36.816Z,18.77
2019-04-20T03:10:12.350Z,18.43
2019-04-20T03:12:46.209Z,19.30
2019-04-20T03:15:09.520Z,18.33
2019-04-20T03:17:44.435Z,19.30
2019-04-20T03:20:19.920Z,19.47
2019-04-20T03:23:11.176Z,20.20
2019-04-20T03:25:24.164Z,19.73
2019-04-20T03:27:59.614Z,19.20
2019-04-20T03:31:15.673Z,19.63
2019-04-20T03:33:23.820Z,19.00
2019-04-20T03:35:43.418Z,18.77
2019-04-20T03:38:04.619Z,18.93
2019-04-20T03:40:35.079Z,21.30
2019-04-20T03:42:50.620Z,19.87
2019-04-20T03:45:23.063Z,20.37
2019-04-20T03:48:04.235Z,20.03
2019-04-20T03:50:46.790Z,19.17
2019-04-20T03:53:19.910Z,20.23
2019-04-20T03:56:00.683Z,19.43
2019-04-20T03:58:34.474Z,19.70
2019-04-20T04:01:22.728Z,19.47
2019-04-20T04:03:58.784Z,18.97
2019-04-20T04:06:19.366Z,18.90
2019-04-20T04:08:53.136Z,18.13
2019-04-20T04:11:26.141Z,19.13
2019-04-20T04:13:41.914Z,18.50
2019-04-20T04:16:15.022Z,18.90
2019-04-20T04:18:47.348Z,19.47
2019-04-20T04:21:21.760Z,19.00
2019-04-20T04:24:02.173Z,18.70
2019-04-20T04:26:34.153Z,19.20
2019-04-20T04:29:16.719Z,18.63
2019-04-20T04:31:53.504Z,19.10
2019-04-20T04:34:10.761Z,19.47
2019-04-20T04:36:46.472Z,19.00
2019-04-20T04:39:19.272Z,18.73
2019-04-20T04:41:55.909Z,18.70
2019-04-20T04:44:11.162Z,17.97
2019-04-20T04:46:32.982Z,18.47
2019-04-20T04:49:09.593Z,18.37
2019-04-20T04:51:42.411Z,17.80
2019-04-20T04:54:13.896Z,17.20
2019-04-20T04:56:35.551Z,16.70
2019-04-20T04:59:05.285Z,16.93
2019-04-20T05:01:37.793Z,16.93
2019-04-20T05:04:24.815Z,16.37
2019-04-20T05:06:54.744Z,16.50
2019-04-20T05:09:14.855Z,16.40
2019-04-20T05:11:42.746Z,16.40
2019-04-20T05:14:19.334Z,16.40
2019-04-20T05:16:58.327Z,15.67
2019-04-20T05:19:38.490Z,15.97
2019-04-20T05:22:11.077Z,15.83
2019-04-20T05:24:48.127Z,15.70
2019-04-20T05:27:34.442Z,16.17
2019-04-20T05:29:59.171Z,14.90
2019-04-20T05:32:51.282Z,15.90
2019-04-20T05:35:31.196Z,15.70
2019-04-20T05:38:06.822Z,15.70
2019-04-20T05:40:35.489Z,15.10
2019-04-20T05:43:05.895Z,14.97
2019-04-20T05:45:35.370Z,15.23
2019-04-20T05:48:07.476Z,14.90
2019-04-20T05:50:45.297Z,15.13
2019-04-20T05:53:14.766Z,15.97
2019-04-20T05:55:43.013Z,14.70
2019-04-20T05:58:17.899Z,15.43
2019-04-20T06:00:55.326Z,16.10
2019-04-20T06:03:20.294Z,14.33
2019-04-20T06:05:57.875Z,15.43
2019-04-20T06:08:32.040Z,14.67
2019-04-20T06:10:58.626Z,13.83
2019-04-20T06:13:23.952Z,14.03
2019-04-20T06:15:59.842Z,14.20
2019-04-20T06:18:40.198Z,14.17
2019-04-20T06:21:33.825Z,15.07
2019-04-20T06:23:56.652Z,13.80
2019-04-20T06:26:43.480Z,13.17
2019-04-20T06:28:50.832Z,14.33
2019-04-20T06:31:32.468Z,13.70
2019-04-20T06:36:53.418Z,12.97
2019-04-20T06:39:37.284Z,12.97
2019-04-20T06:49:35.397Z,13.48
2019-04-20T06:52:15.348Z,12.35
2019-04-20T06:55:00.276Z,13.25
2019-04-20T06:57:35.682Z,13.62
2019-04-20T07:00:10.335Z,12.82
2019-04-20T07:02:35.918Z,12.90
2019-04-20T07:05:07.010Z,12.58
2019-04-20T07:07:35.766Z,12.65
2019-04-20T07:10:13.324Z,12.00
2019-04-20T07:12:39.601Z,13.10
2019-04-20T07:15:00.103Z,11.30
2019-04-20T07:17:53.301Z,11.80
2019-04-20T07:20:18.516Z,12.65
2019-04-20T07:23:02.201Z,12.63
2019-04-20T07:25:33.175Z,11.38
2019-04-20T07:27:57.874Z,12.53
2019-04-20T07:30:30.597Z,12.10
2019-04-20T07:33:08.761Z,11.50
2019-04-20T07:35:35.850Z,11.35
2019-04-20T07:38:23.407Z,11.08
2019-04-20T07:40:37.519Z,11.20
2019-04-20T07:43:04.647Z,10.72
2019-04-20T07:45:43.258Z,11.35
2019-04-20T07:50:34.717Z,11.20
2019-04-20T07:53:10.922Z,11.35
2019-04-20T07:55:50.805Z,11.73
2019-04-20T07:58:08.334Z,11.70
2019-04-20T08:00:59.742Z,12.25
2019-04-20T08:03:29.624Z,11.10
2019-04-20T08:06:01.108Z,11.28
2019-04-20T08:08:32.574Z,11.78
2019-04-20T08:11:10.952Z,10.40
2019-04-20T08:13:51.366Z,11.00
2019-04-20T08:16:22.891Z,12.10
2019-04-20T08:18:58.563Z,12.13
2019-04-20T08:21:22.871Z,10.57
2019-04-20T08:23:51.392Z,11.73
2019-04-20T08:26:10.833Z,11.53
2019-04-20T08:28:49.688Z,11.45
2019-04-20T08:31:32.294Z,11.73
2019-04-20T08:34:31.283Z,11.28
2019-04-20T08:36:47.727Z,11.38
2019-04-20T08:41:50.363Z,11.53
2019-04-20T08:44:42.871Z,11.10
2019-04-20T08:47:01.343Z,11.33
2019-04-20T08:49:25.112Z,11.03
2019-04-20T08:52:05.966Z,10.78
2019-04-20T08:54:23.273Z,11.90
2019-04-20T08:56:43.475Z,11.53
2019-04-20T08:59:06.729Z,11.97
2019-04-20T09:01:38.725Z,10.63
2019-04-20T09:04:15.365Z,10.60
2019-04-20T09:06:54.534Z,11.30
2019-04-20T09:09:37.805Z,10.20
2019-04-20T09:12:03.285Z,11.00
2019-04-20T09:14:21.286Z,10.72
2019-04-20T09:17:01.526Z,10.43
2019-04-20T09:19:34.648Z,11.95
2019-04-20T09:22:14.754Z,11.70
2019-04-20T09:24:53.785Z,11.88
2019-04-20T09:27:14.605Z,10.80
2019-04-20T09:29:44.875Z,11.12
2019-04-20T09:32:23.158Z,11.68
2019-04-20T09:35:01.101Z,11.33
2019-04-20T09:37:47.196Z,11.15
2019-04-20T09:40:20.217Z,10.48
2019-04-20T09:42:40.541Z,11.22
2019-04-20T09:45:23.249Z,12.25
2019-04-20T09:47:49.645Z,11.28
2019-04-20T09:50:33.709Z,10.00
2019-04-20T09:53:04.080Z,10.10
2019-04-20T09:55:31.261Z,10.65
2019-04-20T09:58:07.261Z,9.60
2019-04-20T10:00:42.177Z,9.63
2019-04-20T10:02:58.511Z,10.53
2019-04-20T10:05:29.593Z,10.10
2019-04-20T10:08:03.359Z,10.00
2019-04-20T10:10:38.018Z,10.88
2019-04-20T10:13:02.523Z,10.20
2019-04-20T10:15:33.021Z,9.55
2019-04-20T10:18:03.717Z,8.95
2019-04-20T10:20:36.247Z,10.20
2019-04-20T10:23:04.802Z,8.63
2019-04-20T10:25:34.710Z,9.88
2019-04-20T10:28:05.544Z,9.78
2019-04-20T10:30:35.119Z,10.25
2019-04-20T10:33:05.756Z,8.80
2019-04-20T10:35:35.890Z,8.88
2019-04-20T10:38:09.992Z,8.88
2019-04-20T10:40:50.763Z,8.68
2019-04-20T10:43:12.044Z,9.45
2019-04-20T10:45:41.873Z,10.15
2019-04-20T10:48:11.454Z,9.13
2019-04-20T10:50:41.345Z,9.38
2019-04-20T10:53:12.123Z,9.13
2019-04-20T10:55:43.159Z,9.05
2019-04-20T10:58:13.618Z,10.13
2019-04-20T11:00:46.134Z,9.13
2019-04-20T11:03:17.775Z,9.68
2019-04-20T11:05:48.928Z,9.68
2019-04-20T11:08:20.216Z,9.05
2019-04-20T11:11:00.297Z,10.53
2019-04-20T11:13:21.446Z,10.18
2019-04-20T11:15:52.553Z,9.85
2019-04-20T11:18:22.165Z,9.80
2019-04-20T11:20:51.678Z,8.80
2019-04-20T11:23:22.381Z,8.90
2019-04-20T11:25:52.525Z,9.90
2019-04-20T11:28:22.246Z,9.18
2019-04-20T11:30:52.383Z,9.43
2019-04-20T11:33:22.395Z,9.30
2019-04-20T11:35:51.924Z,9.18
2019-04-20T11:38:22.021Z,9.00
2019-04-20T11:41:04.109Z,8.15
2019-04-20T11:43:23.960Z,8.78
2019-04-20T11:45:54.420Z,8.68
2019-04-20T11:48:25.368Z,9.13
2019-04-20T11:50:55.806Z,8.65
2019-04-20T11:53:26.932Z,9.08
2019-04-20T11:55:56.669Z,8.30
2019-04-20T11:58:26.231Z,8.65
2019-04-20T12:01:05.100Z,7.80
2019-04-20T12:03:39.004Z,8.03
2019-04-20T12:06:04.687Z,7.42
2019-04-20T12:08:33.301Z,7.42
2019-04-20T12:11:20.451Z,8.03
2019-04-20T12:13:34.815Z,7.58
2019-04-20T12:16:05.650Z,8.25
2019-04-20T12:18:35.903Z,7.58
2019-04-20T12:21:05.482Z,7.60
2019-04-20T12:23:36.200Z,7.42
2019-04-20T12:26:06.801Z,7.70
2019-04-20T12:28:37.821Z,7.62
2019-04-20T12:31:11.849Z,7.40
2019-04-20T12:33:40.063Z,7.60
2019-04-20T12:36:10.440Z,6.92
2019-04-20T12:38:41.308Z,7.00
2019-04-20T12:41:12.570Z,7.28
2019-04-20T12:43:45.569Z,7.05
2019-04-20T12:46:18.284Z,7.90
2019-04-20T12:48:47.403Z,7.92
2019-04-20T12:51:17.530Z,7.85
2019-04-20T12:53:47.097Z,8.38
2019-04-20T12:56:16.984Z,8.03
2019-04-20T12:58:47.357Z,7.55
2019-04-20T13:01:19.346Z,8.28
2019-04-20T13:03:48.244Z,7.75
2019-04-20T13:06:17.768Z,7.35
2019-04-20T13:08:52.314Z,7.67
2019-04-20T13:11:24.634Z,6.70
2019-04-20T13:14:06.369Z,7.50
2019-04-20T13:16:38.673Z,7.35
2019-04-20T13:19:08.933Z,7.22
2019-04-20T13:21:39.134Z,7.00
2019-04-20T13:24:09.315Z,7.40
2019-04-20T13:26:38.986Z,7.12
2019-04-20T13:29:08.762Z,7.45
2019-04-20T13:31:39.996Z,7.42
2019-04-20T13:34:09.713Z,7.25
2019-04-20T13:36:40.063Z,8.85
2019-04-20T13:39:10.234Z,7.30
2019-04-20T13:41:40.040Z,7.70
2019-04-20T13:44:09.607Z,7.72
2019-04-20T13:46:39.070Z,7.22
2019-04-20T13:49:09.273Z,7.95
2019-04-20T13:51:39.181Z,7.92
2019-04-20T13:54:13.896Z,8.28
2019-04-20T13:56:40.205Z,8.00
2019-04-20T13:59:11.966Z,8.33
2019-04-20T14:01:48.781Z,8.30
2019-04-20T14:04:20.977Z,8.05
2019-04-20T14:06:51.286Z,8.18
2019-04-20T14:09:21.327Z,7.80
2019-04-20T14:11:51.750Z,7.75
2019-04-20T14:14:21.516Z,7.65
2019-04-20T14:16:51.053Z,8.08
2019-04-20T14:19:21.076Z,8.50
2019-04-20T14:21:50.575Z,8.03
2019-04-20T14:24:21.333Z,8.70
2019-04-20T14:26:52.601Z,7.92
2019-04-20T14:29:23.061Z,8.10
2019-04-20T14:31:52.747Z,8.63
2019-04-20T14:34:22.670Z,7.92
2019-04-20T14:36:52.993Z,8.73
2019-04-20T14:39:22.569Z,7.92
2019-04-20T14:41:52.347Z,8.85
2019-04-20T14:44:21.868Z,9.35
2019-04-20T14:46:51.658Z,9.28
2019-04-20T14:49:21.282Z,8.28
2019-04-20T14:51:50.736Z,8.33
2019-04-20T14:54:21.344Z,7.92
2019-04-20T14:56:51.685Z,8.50
2019-04-20T14:59:33.686Z,8.15
2019-04-20T15:02:06.386Z,8.80
2019-04-20T15:04:37.077Z,7.97
2019-04-20T15:07:06.994Z,8.00
2019-04-20T15:09:38.483Z,8.33
2019-04-20T15:12:08.825Z,8.18
2019-04-20T15:14:38.735Z,8.73
2019-04-20T15:17:10.966Z,8.05
2019-04-20T15:19:49.487Z,8.53
2019-04-20T15:22:36.863Z,9.93
2019-04-20T15:25:07.617Z,7.97
2019-04-20T15:27:37.472Z,6.90
2019-04-20T15:30:08.757Z,7.22
2019-04-20T15:32:38.966Z,8.18
2019-04-20T15:35:09.090Z,9.10
2019-04-20T15:37:39.513Z,8.05
2019-04-20T15:40:09.160Z,8.88
2019-04-20T15:42:49.345Z,8.85
2019-04-20T15:45:11.353Z,8.15
2019-04-20T15:47:40.978Z,8.00
2019-04-20T15:50:11.819Z,7.17
2019-04-20T15:52:46.785Z,7.22
2019-04-20T15:55:21.599Z,7.45
2019-04-20T15:57:44.808Z,7.83
2019-04-20T16:00:14.602Z,7.35
2019-04-20T16:02:49.496Z,7.62
2019-04-20T16:05:33.263Z,34.58
2019-04-20T16:08:08.748Z,48.20
2019-04-20T16:10:39.197Z,43.70
2019-04-20T16:13:18.196Z,24.52
2019-04-20T16:15:40.451Z,14.90
2019-04-20T16:18:10.320Z,9.83
2019-04-20T16:20:53.627Z,9.30
2019-04-20T16:23:12.347Z,8.88
2019-04-20T16:26:00.083Z,17.00
2019-04-20T16:28:29.883Z,19.37
2019-04-20T16:30:59.439Z,39.67
2019-04-20T16:33:30.266Z,26.27
2019-04-20T16:36:00.621Z,23.18
2019-04-20T16:38:30.643Z,66.47
2019-04-20T16:41:00.318Z,71.97
2019-04-20T16:43:35.717Z,133.82
2019-04-20T16:46:01.495Z,61.83
2019-04-20T16:48:31.247Z,46.95
2019-04-20T16:51:01.155Z,49.50
2019-04-20T16:53:32.927Z,52.27
2019-04-20T16:56:02.899Z,42.00
2019-04-20T16:58:33.779Z,23.87
2019-04-20T17:01:03.531Z,43.52
2019-04-20T17:03:44.175Z,106.30
2019-04-20T17:06:06.308Z,86.72
2019-04-20T17:08:37.075Z,51.35
2019-04-20T17:11:07.774Z,91.55
2019-04-20T17:13:43.862Z,57.00
2019-04-20T17:16:10.026Z,42.98
2019-04-20T17:18:39.638Z,102.92
2019-04-20T17:21:16.624Z,18.82
2019-04-20T17:23:43.380Z,12.35
2019-04-20T17:26:14.685Z,25.45
2019-04-20T17:28:46.929Z,11.63
2019-04-20T17:31:21.885Z,8.15
2019-04-20T17:34:01.477Z,8.10
2019-04-20T17:36:27.790Z,8.75
2019-04-20T17:38:59.740Z,12.33
2019-04-20T17:42:00.339Z,9.18
2019-04-20T17:44:17.701Z,7.80
2019-04-20T17:46:42.428Z,7.47
2019-04-20T17:49:15.990Z,8.30
2019-04-20T17:51:58.177Z,8.00
2019-04-20T17:54:08.448Z,7.58
2019-04-20T17:56:38.394Z,7.83
2019-04-20T17:59:08.208Z,14.60
2019-04-20T18:02:07.755Z,27.43
2019-04-20T18:04:55.929Z,89.97
2019-04-20T18:07:18.246Z,87.37
2019-04-20T18:09:49.240Z,88.03
2019-04-20T18:12:07.538Z,45.30
2019-04-20T18:14:51.686Z,16.60
2019-04-20T18:17:32.123Z,13.70
2019-04-20T18:20:03.384Z,11.87
2019-04-20T18:22:34.100Z,10.27
2019-04-20T18:25:27.421Z,10.47
2019-04-20T18:27:53.186Z,9.47
2019-04-20T18:30:27.454Z,9.93
2019-04-20T18:32:45.390Z,9.90
2019-04-20T18:35:20.304Z,9.93
2019-04-20T18:37:52.477Z,9.87
2019-04-20T18:40:29.101Z,15.17
2019-04-20T18:43:02.825Z,22.57
2019-04-20T18:45:41.097Z,24.00
2019-04-20T18:48:13.029Z,48.47
2019-04-20T18:50:32.605Z,61.00
2019-04-20T18:52:57.936Z,47.50
2019-04-20T18:55:38.787Z,30.67
2019-04-20T18:57:59.381Z,24.87
2019-04-20T19:00:33.740Z,23.47
2019-04-20T19:03:09.711Z,15.57
2019-04-20T19:05:31.695Z,12.33
2019-04-20T19:08:06.223Z,12.10
2019-04-20T19:10:38.088Z,11.00
2019-04-20T19:13:31.718Z,11.90
2019-04-20T19:16:24.772Z,11.70
2019-04-20T19:19:04.336Z,11.60
2019-04-20T19:21:21.556Z,11.97
2019-04-20T19:23:59.957Z,11.93
2019-04-20T19:26:23.823Z,11.30
2019-04-20T19:28:56.260Z,10.50
2019-04-20T19:31:42.623Z,9.67
2019-04-20T19:34:15.355Z,10.43
2019-04-20T19:36:34.897Z,9.70
2019-04-20T19:39:15.112Z,10.60
2019-04-20T19:41:42.063Z,10.70
2019-04-20T19:44:14.793Z,11.90
2019-04-20T19:46:55.210Z,11.17
2019-04-20T19:49:19.322Z,11.67
2019-04-20T19:52:12.132Z,12.83
2019-04-20T19:54:29.956Z,12.47
2019-04-20T19:56:56.307Z,14.27
2019-04-20T19:59:19.814Z,14.40
2019-04-20T20:01:40.054Z,15.17
2019-04-20T20:04:11.521Z,15.13
2019-04-20T20:06:47.110Z,14.87
2019-04-20T20:09:13.392Z,14.67
2019-04-20T20:11:45.015Z,14.13
2019-04-20T20:14:19.555Z,13.20
2019-04-20T20:17:06.705Z,12.93
2019-04-20T20:19:32.402Z,13.30
2019-04-20T20:22:04.763Z,13.10
2019-04-20T20:24:19.993Z,13.47
2019-04-20T20:26:56.342Z,13.60
2019-04-20T20:29:30.540Z,13.20
2019-04-20T20:32:05.097Z,13.93
2019-04-20T20:34:30.919Z,13.87
2019-04-20T20:37:03.035Z,14.63
2019-04-20T20:39:31.694Z,14.10
2019-04-20T20:42:10.714Z,14.80
2019-04-20T20:44:41.186Z,14.50
2019-04-20T20:47:21.743Z,14.40
2019-04-20T20:50:00.067Z,15.70
2019-04-20T20:52:21.850Z,15.70
2019-04-20T20:54:49.572Z,16.47
2019-04-20T20:57:14.832Z,15.53
2019-04-20T20:59:48.210Z,14.60
2019-04-20T21:02:15.819Z,14.80
2019-04-20T21:04:41.816Z,14.00
2019-04-20T21:07:11.255Z,13.03
2019-04-20T21:09:41.842Z,14.60
2019-04-20T21:12:15.986Z,15.70
2019-04-20T21:14:44.230Z,16.03
2019-04-20T21:17:18.324Z,16.60
2019-04-20T21:20:05.378Z,16.00
2019-04-20T21:22:27.285Z,13.90
2019-04-20T21:24:51.093Z,13.97
2019-04-20T21:27:22.203Z,14.37
2019-04-20T21:29:55.195Z,14.93
2019-04-20T21:32:51.632Z,14.80
2019-04-20T21:35:19.835Z,14.90
2019-04-20T21:37:56.940Z,14.23
2019-04-20T21:40:27.961Z,14.37
2019-04-20T21:42:58.796Z,12.70
2019-04-20T21:45:28.636Z,12.97
2019-04-20T21:47:54.580Z,12.90
2019-04-20T21:50:42.734Z,13.00
2019-04-20T21:53:06.034Z,12.87
2019-04-20T21:55:27.925Z,14.17
2019-04-20T21:58:00.439Z,13.90
2019-04-20T22:00:50.467Z,13.00
2019-04-20T22:03:20.307Z,13.43
2019-04-20T22:05:52.572Z,13.67
2019-04-20T22:08:24.242Z,13.30
2019-04-20T22:10:55.357Z,13.23
2019-04-20T22:13:31.137Z,13.90
2019-04-20T22:16:03.144Z,13.60
2019-04-20T22:18:28.712Z,13.77
2019-04-20T22:21:09.461Z,13.77
2019-04-20T22:23:47.557Z,13.37
2019-04-20T22:26:11.880Z,12.60
2019-04-20T22:28:32.054Z,12.77
2019-04-20T22:31:02.194Z,12.30
2019-04-20T22:33:40.982Z,11.13
2019-04-20T22:36:10.818Z,12.47
2019-04-20T22:38:59.809Z,11.80
2019-04-20T22:41:28.086Z,10.60
2019-04-20T22:44:02.744Z,11.10
2019-04-20T22:46:33.361Z,12.20
2019-04-20T22:49:19.136Z,12.47
2019-04-20T22:51:44.822Z,13.30
2019-04-20T22:54:16.940Z,13.40
2019-04-20T22:56:46.959Z,12.73
2019-04-20T22:59:12.794Z,12.57
2019-04-20T23:01:44.436Z,12.73
2019-04-20T23:04:08.742Z,12.33
2019-04-20T23:06:43.955Z,12.40
2019-04-20T23:09:13.282Z,12.03
2019-04-20T23:11:42.333Z,12.63
2019-04-20T23:14:11.905Z,12.77
2019-04-20T23:16:45.440Z,14.20
2019-04-20T23:19:14.156Z,13.10
2019-04-20T23:21:48.672Z,14.20
2019-04-20T23:24:16.713Z,13.10
2019-04-20T23:26:47.635Z,14.63
2019-04-20T23:29:21.402Z,13.93
2019-04-20T23:31:55.345Z,14.37
2019-04-20T23:34:24.717Z,14.33
2019-04-20T23:36:52.568Z,14.23
2019-04-20T23:39:24.706Z,14.13
2019-04-20T23:41:59.582Z,15.90
2019-04-20T23:44:29.320Z,13.90
2019-04-20T23:47:11.128Z,14.20
2019-04-20T23:49:54.175Z,14.70
2019-04-20T23:52:32.583Z,14.03
2019-04-20T23:54:49.064Z,14.03
2019-04-20T23:57:11.554Z,15.57
2019-04-20T23:59:44.741Z,15.67
